createdAt,value
2022-09-15T00:01:14.065Z,12.40
2022-09-15T00:03:41.469Z,12.57
2022-09-15T00:06:09.500Z,12.73
2022-09-15T00:08:37.436Z,13.70
2022-09-15T00:11:11.772Z,12.67
2022-09-15T00:13:40.881Z,11.13
2022-09-15T00:16:11.640Z,11.40
2022-09-15T00:18:42.884Z,12.07
2022-09-15T00:21:15.919Z,12.07
2022-09-15T00:23:43.630Z,11.57
2022-09-15T00:26:14.392Z,12.70
2022-09-15T00:28:42.489Z,14.37
2022-09-15T00:31:15.593Z,14.37
2022-09-15T00:33:46.190Z,12.83
2022-09-15T00:36:14.583Z,12.60
2022-09-15T00:38:43.053Z,14.27
2022-09-15T00:41:22.111Z,12.53
2022-09-15T00:44:05.917Z,13.40
2022-09-15T00:46:42.464Z,14.63
2022-09-15T00:49:21.724Z,11.30
2022-09-15T00:52:04.009Z,12.73
2022-09-15T00:54:49.443Z,11.40
2022-09-15T00:57:33.685Z,11.63
2022-09-15T01:00:09.362Z,11.47
2022-09-15T01:02:38.474Z,11.53
2022-09-15T01:05:11.735Z,12.77
2022-09-15T01:07:59.257Z,12.57
2022-09-15T01:10:34.163Z,12.83
2022-09-15T01:13:08.540Z,14.00
2022-09-15T01:16:14.153Z,11.83
2022-09-15T01:19:16.215Z,13.97
2022-09-15T01:22:38.556Z,13.77
2022-09-15T01:25:32.060Z,11.93
2022-09-15T01:28:23.378Z,14.80
2022-09-15T01:31:03.901Z,11.07
2022-09-15T01:34:03.203Z,12.37
2022-09-15T01:37:04.964Z,13.63
2022-09-15T01:39:43.457Z,13.83
2022-09-15T01:42:16.636Z,12.20
2022-09-15T01:44:57.925Z,13.40
2022-09-15T01:47:30.108Z,12.37
2022-09-15T01:50:20.654Z,12.03
2022-09-15T01:52:54.831Z,10.17
2022-09-15T01:55:38.090Z,11.67
2022-09-15T01:58:05.573Z,12.13
2022-09-15T02:00:40.055Z,11.03
2022-09-15T02:03:21.337Z,12.13
2022-09-15T02:06:02.893Z,13.00
2022-09-15T02:08:43.672Z,12.40
2022-09-15T02:11:17.246Z,13.90
2022-09-15T02:14:17.540Z,12.90
2022-09-15T02:16:52.557Z,13.17
2022-09-15T02:19:31.368Z,13.77
2022-09-15T02:22:24.496Z,12.50
2022-09-15T02:25:03.165Z,12.80
2022-09-15T02:27:37.845Z,12.43
2022-09-15T02:30:13.398Z,12.17
2022-09-15T02:32:49.406Z,13.57
2022-09-15T02:35:17.780Z,13.73
2022-09-15T02:37:46.383Z,13.33
2022-09-15T02:40:13.633Z,14.83
2022-09-15T02:42:40.952Z,12.90
2022-09-15T02:45:09.118Z,13.37
2022-09-15T02:47:36.196Z,10.33
2022-09-15T02:50:03.697Z,12.27
2022-09-15T02:52:30.898Z,12.90
2022-09-15T02:54:58.329Z,12.33
2022-09-15T02:57:25.662Z,11.33
2022-09-15T03:00:11.406Z,9.83
2022-09-15T03:02:38.727Z,11.17
2022-09-15T03:05:08.399Z,10.80
2022-09-15T03:07:37.647Z,11.27
2022-09-15T03:10:10.614Z,10.80
2022-09-15T03:12:44.014Z,10.23
2022-09-15T03:15:14.644Z,10.90
2022-09-15T03:17:44.738Z,9.87
2022-09-15T03:20:18.486Z,11.63
2022-09-15T03:22:45.898Z,10.23
2022-09-15T03:25:13.563Z,10.87
2022-09-15T03:27:40.919Z,11.10
2022-09-15T03:30:10.221Z,11.33
2022-09-15T03:32:37.556Z,12.20
2022-09-15T03:35:07.086Z,12.27
2022-09-15T03:37:34.767Z,10.73
2022-09-15T03:40:03.987Z,11.63
2022-09-15T03:42:31.498Z,10.07
2022-09-15T03:44:58.625Z,10.83
2022-09-15T03:47:25.996Z,12.13
2022-09-15T03:49:53.054Z,11.90
2022-09-15T03:52:20.145Z,10.90
2022-09-15T03:54:49.157Z,11.63
2022-09-15T03:57:16.270Z,10.50
2022-09-15T03:59:43.455Z,10.57
2022-09-15T04:02:10.767Z,11.17
2022-09-15T04:04:38.046Z,10.13
2022-09-15T04:07:05.370Z,9.93
2022-09-15T04:09:32.721Z,11.70
2022-09-15T04:11:59.966Z,12.57
2022-09-15T04:14:27.001Z,10.33
2022-09-15T04:16:54.106Z,12.13
2022-09-15T04:19:21.317Z,11.93
2022-09-15T04:21:48.528Z,11.77
2022-09-15T04:24:15.886Z,12.40
2022-09-15T04:26:43.083Z,12.20
2022-09-15T04:29:16.584Z,10.57
2022-09-15T04:31:43.942Z,11.90
2022-09-15T04:34:11.299Z,11.87
2022-09-15T04:36:38.888Z,12.10
2022-09-15T04:39:06.810Z,12.03
2022-09-15T04:41:34.009Z,11.67
2022-09-15T04:44:01.261Z,15.70
2022-09-15T04:46:28.698Z,12.73
2022-09-15T04:48:57.030Z,15.97
2022-09-15T04:51:25.213Z,13.90
2022-09-15T04:53:52.580Z,13.23
2022-09-15T04:56:23.832Z,14.17
2022-09-15T04:59:03.595Z,12.73
2022-09-15T05:01:35.411Z,13.27
2022-09-15T05:04:04.468Z,13.90
2022-09-15T05:06:32.755Z,12.50
2022-09-15T05:09:00.014Z,13.87
2022-09-15T05:11:28.564Z,13.73
2022-09-15T05:13:55.839Z,13.50
2022-09-15T05:16:29.451Z,13.23
2022-09-15T05:19:00.680Z,12.37
2022-09-15T05:21:28.299Z,12.87
2022-09-15T05:23:56.213Z,13.47
2022-09-15T05:26:28.443Z,13.73
2022-09-15T05:28:57.212Z,13.70
2022-09-15T05:31:31.581Z,12.47
2022-09-15T05:34:02.963Z,12.13
2022-09-15T05:36:30.599Z,14.60
2022-09-15T05:38:58.572Z,11.50
2022-09-15T05:41:28.062Z,12.17
2022-09-15T05:43:58.078Z,11.27
2022-09-15T05:46:29.339Z,17.70
2022-09-15T05:48:58.853Z,10.93
2022-09-15T05:51:48.322Z,13.00
2022-09-15T05:54:15.530Z,14.83
2022-09-15T05:56:42.655Z,12.30
2022-09-15T05:59:09.915Z,12.70
2022-09-15T06:01:37.031Z,13.07
2022-09-15T06:04:04.308Z,12.00
2022-09-15T06:06:33.162Z,14.50
2022-09-15T06:09:01.838Z,13.40
2022-09-15T06:11:33.871Z,13.07
2022-09-15T06:14:03.457Z,12.00
2022-09-15T06:16:34.679Z,12.20
2022-09-15T06:19:02.741Z,14.10
2022-09-15T06:21:32.546Z,11.10
2022-09-15T06:24:03.761Z,13.03
2022-09-15T06:26:31.476Z,12.77
2022-09-15T06:29:01.838Z,13.63
2022-09-15T06:31:31.935Z,13.10
2022-09-15T06:34:00.015Z,13.80
2022-09-15T06:36:30.528Z,12.73
2022-09-15T06:38:58.581Z,13.50
2022-09-15T06:41:26.571Z,15.23
2022-09-15T06:43:53.869Z,13.27
2022-09-15T06:46:25.313Z,13.47
2022-09-15T06:48:53.811Z,15.73
2022-09-15T06:51:28.949Z,14.03
2022-09-15T06:53:56.122Z,11.33
2022-09-15T06:56:24.372Z,13.17
2022-09-15T06:58:52.176Z,13.90
2022-09-15T07:01:28.639Z,13.03
2022-09-15T07:03:59.070Z,12.50
2022-09-15T07:06:30.612Z,11.87
2022-09-15T07:09:02.647Z,12.50
2022-09-15T07:11:30.770Z,13.63
2022-09-15T07:13:58.050Z,12.13
2022-09-15T07:16:28.196Z,11.93
2022-09-15T07:19:01.966Z,12.07
2022-09-15T07:21:29.530Z,11.60
2022-09-15T07:24:02.727Z,13.07
2022-09-15T07:26:32.515Z,12.23
2022-09-15T07:29:02.677Z,11.83
2022-09-15T07:31:33.063Z,10.63
2022-09-15T07:34:01.258Z,12.90
2022-09-15T07:36:30.027Z,11.50
2022-09-15T07:38:57.796Z,10.30
2022-09-15T07:41:28.470Z,10.23
2022-09-15T07:43:59.237Z,9.93
2022-09-15T07:46:31.238Z,10.70
2022-09-15T07:48:58.951Z,10.67
2022-09-15T07:51:26.806Z,9.90
2022-09-15T07:53:54.750Z,10.43
2022-09-15T07:56:23.493Z,10.30
2022-09-15T07:58:51.396Z,10.30
2022-09-15T08:01:22.647Z,9.10
2022-09-15T08:03:52.642Z,11.37
2022-09-15T08:06:23.758Z,10.90
2022-09-15T08:08:56.353Z,8.60
2022-09-15T08:11:28.178Z,8.77
2022-09-15T08:13:55.529Z,8.60
2022-09-15T08:16:24.950Z,10.87
2022-09-15T08:18:54.671Z,9.17
2022-09-15T08:21:23.449Z,9.53
2022-09-15T08:23:56.800Z,8.73
2022-09-15T08:26:26.168Z,8.37
2022-09-15T08:28:53.841Z,9.03
2022-09-15T08:31:21.808Z,8.20
2022-09-15T08:33:51.842Z,8.50
2022-09-15T08:36:19.273Z,7.20
2022-09-15T08:38:47.233Z,10.47
2022-09-15T08:41:32.518Z,8.50
2022-09-15T08:44:34.735Z,7.77
2022-09-15T08:47:37.822Z,6.63
2022-09-15T08:50:27.784Z,7.97
2022-09-15T08:53:07.060Z,6.80
2022-09-15T08:55:55.251Z,5.83
2022-09-15T08:58:30.121Z,8.50
2022-09-15T09:01:24.672Z,5.70
2022-09-15T09:04:23.968Z,7.73
2022-09-15T09:07:16.908Z,7.43
2022-09-15T09:09:56.694Z,6.00
2022-09-15T09:12:51.816Z,8.07
2022-09-15T09:15:59.392Z,5.50
2022-09-15T09:18:29.520Z,5.23
2022-09-15T09:21:12.838Z,5.93
2022-09-15T09:24:05.554Z,6.17
2022-09-15T09:26:36.693Z,4.83
2022-09-15T09:29:39.502Z,5.87
2022-09-15T09:33:05.168Z,5.43
2022-09-15T09:35:54.658Z,5.27
2022-09-15T09:38:28.912Z,4.20
2022-09-15T09:41:01.391Z,3.30
2022-09-15T09:43:31.704Z,4.40
2022-09-15T09:45:59.490Z,5.43
2022-09-15T09:48:29.878Z,4.77
2022-09-15T09:50:57.208Z,8.60
2022-09-15T09:53:33.156Z,4.80
2022-09-15T09:56:13.199Z,4.60
2022-09-15T09:58:40.336Z,3.93
2022-09-15T10:01:26.671Z,4.33
2022-09-15T10:04:19.374Z,3.93
2022-09-15T10:06:47.824Z,5.40
2022-09-15T10:09:19.548Z,4.17
2022-09-15T10:11:51.639Z,3.83
2022-09-15T10:14:26.548Z,4.20
2022-09-15T10:17:20.872Z,4.27
2022-09-15T10:19:59.668Z,4.43
2022-09-15T10:22:40.362Z,4.80
2022-09-15T10:25:22.662Z,5.60
2022-09-15T10:28:08.450Z,3.67
2022-09-15T10:30:37.049Z,3.93
2022-09-15T10:33:23.550Z,3.77
2022-09-15T10:35:52.011Z,5.07
2022-09-15T10:38:56.129Z,3.53
2022-09-15T10:41:32.395Z,2.87
2022-09-15T10:44:30.578Z,4.03
2022-09-15T10:47:09.445Z,4.40
2022-09-15T10:49:58.100Z,3.90
2022-09-15T10:52:29.335Z,2.50
2022-09-15T10:55:14.565Z,3.30
2022-09-15T10:58:05.135Z,4.33
2022-09-15T11:01:11.561Z,3.60
2022-09-15T11:03:59.051Z,3.17
2022-09-15T11:06:47.616Z,3.37
2022-09-15T11:09:25.829Z,5.17
2022-09-15T11:12:17.353Z,3.63
2022-09-15T11:15:29.433Z,4.40
2022-09-15T11:18:24.303Z,5.13
2022-09-15T11:21:02.664Z,5.63
2022-09-15T11:23:46.759Z,5.50
2022-09-15T11:26:26.242Z,4.50
2022-09-15T11:29:05.752Z,3.27
2022-09-15T11:31:42.689Z,5.50
2022-09-15T11:34:23.582Z,5.20
2022-09-15T11:37:10.021Z,3.63
2022-09-15T11:39:48.815Z,3.90
2022-09-15T11:42:38.755Z,3.97
2022-09-15T11:48:37.329Z,2.20
2022-09-15T11:51:08.393Z,5.20
2022-09-15T11:54:04.123Z,4.13
2022-09-15T11:56:46.702Z,5.37
2022-09-15T11:59:53.539Z,4.03
2022-09-15T12:02:27.550Z,3.30
2022-09-15T12:05:11.474Z,3.97
2022-09-15T12:07:58.902Z,2.57
2022-09-15T12:10:59.452Z,2.03
2022-09-15T12:13:27.721Z,4.17
2022-09-15T12:15:56.464Z,3.13
2022-09-15T12:18:54.969Z,2.33
2022-09-15T12:21:48.700Z,2.70
2022-09-15T12:24:21.569Z,1.27
2022-09-15T12:26:49.242Z,3.67
2022-09-15T12:29:22.324Z,2.27
2022-09-15T12:32:21.107Z,2.70
2022-09-15T12:35:15.809Z,2.47
2022-09-15T12:37:48.044Z,1.80
2022-09-15T12:40:38.916Z,0.90
2022-09-15T12:43:12.847Z,0.93
2022-09-15T12:45:44.750Z,1.17
2022-09-15T12:48:22.137Z,1.33
2022-09-15T12:51:01.964Z,1.97
2022-09-15T12:53:59.403Z,3.23
2022-09-15T12:56:31.289Z,1.10
2022-09-15T12:59:07.120Z,3.10
2022-09-15T13:01:51.146Z,1.63
2022-09-15T13:04:41.394Z,1.13
2022-09-15T13:07:18.589Z,1.40
2022-09-15T13:10:45.895Z,2.10
2022-09-15T13:13:32.681Z,1.47
2022-09-15T13:16:03.324Z,0.87
2022-09-15T13:18:32.594Z,1.57
2022-09-15T13:21:07.254Z,2.97
2022-09-15T13:23:41.055Z,1.73
2022-09-15T13:26:15.861Z,2.70
2022-09-15T13:28:44.272Z,2.80
2022-09-15T13:31:48.106Z,2.07
2022-09-15T13:35:04.289Z,4.23
2022-09-15T13:38:22.090Z,2.30
2022-09-15T13:41:34.357Z,2.43
2022-09-15T13:44:41.390Z,1.70
2022-09-15T13:47:31.609Z,2.13
2022-09-15T13:50:21.282Z,2.40
2022-09-15T13:53:14.505Z,2.23
2022-09-15T13:55:44.103Z,3.27
2022-09-15T14:01:08.507Z,3.30
2022-09-15T14:03:39.813Z,3.40
2022-09-15T14:06:30.522Z,2.23
2022-09-15T14:09:06.417Z,3.00
2022-09-15T14:11:37.827Z,2.90
2022-09-15T14:14:28.325Z,2.43
2022-09-15T14:16:57.252Z,2.90
2022-09-15T14:19:36.545Z,2.70
2022-09-15T14:22:26.251Z,3.67
2022-09-15T14:24:58.229Z,2.40
2022-09-15T14:27:33.753Z,2.70
2022-09-15T14:30:17.303Z,2.53
2022-09-15T14:32:52.189Z,3.77
2022-09-15T14:35:25.771Z,2.57
2022-09-15T14:37:59.850Z,5.23
2022-09-15T14:40:39.631Z,3.13
2022-09-15T14:43:31.819Z,3.63
2022-09-15T14:46:13.491Z,3.43
2022-09-15T14:48:40.866Z,2.77
2022-09-15T14:51:28.804Z,3.13
2022-09-15T14:54:00.203Z,3.70
2022-09-15T14:56:39.458Z,2.97
2022-09-15T14:59:16.821Z,3.70
2022-09-15T15:02:01.577Z,4.70
2022-09-15T15:04:42.959Z,5.53
2022-09-15T15:07:32.027Z,3.50
2022-09-15T15:10:16.166Z,3.20
2022-09-15T15:12:52.930Z,4.10
2022-09-15T15:15:21.271Z,5.00
2022-09-15T15:17:52.831Z,3.53
2022-09-15T15:20:49.342Z,3.90
2022-09-15T15:23:26.486Z,2.40
2022-09-15T15:25:54.550Z,2.97
2022-09-15T15:28:35.940Z,1.87
2022-09-15T15:31:20.738Z,3.30
2022-09-15T15:34:07.448Z,3.20
2022-09-15T15:36:36.646Z,2.50
2022-09-15T15:39:20.021Z,2.93
2022-09-15T15:44:17.017Z,1.87
2022-09-15T15:47:01.827Z,1.37
2022-09-15T15:49:32.645Z,1.63
2022-09-15T15:52:01.961Z,2.53
2022-09-15T15:54:29.554Z,2.37
2022-09-15T15:57:21.964Z,3.20
2022-09-15T15:59:49.219Z,3.33
2022-09-15T16:02:16.487Z,2.97
2022-09-15T16:04:43.749Z,3.27
2022-09-15T16:07:19.229Z,3.37
2022-09-15T16:09:47.745Z,2.40
2022-09-15T16:12:16.820Z,4.70
2022-09-15T16:14:44.074Z,4.13
2022-09-15T16:17:11.242Z,5.73
2022-09-15T16:19:38.429Z,1.97
2022-09-15T16:22:05.783Z,2.47
2022-09-15T16:24:33.216Z,1.83
2022-09-15T16:27:00.390Z,2.50
2022-09-15T16:29:36.175Z,3.33
2022-09-15T16:32:06.150Z,2.90
2022-09-15T16:34:33.540Z,2.67
2022-09-15T16:37:00.959Z,4.47
2022-09-15T16:39:28.112Z,2.87
2022-09-15T16:41:55.274Z,1.93
2022-09-15T16:44:22.567Z,2.77
2022-09-15T16:46:49.724Z,3.60
2022-09-15T16:49:17.141Z,3.27
2022-09-15T16:51:44.449Z,2.23
2022-09-15T16:54:20.579Z,2.53
2022-09-15T16:56:47.843Z,2.93
2022-09-15T16:59:15.132Z,3.83
2022-09-15T17:01:45.322Z,2.37
2022-09-15T17:04:16.854Z,3.00
2022-09-15T17:06:44.108Z,2.63
2022-09-15T17:09:11.222Z,4.70
2022-09-15T17:11:38.382Z,2.80
2022-09-15T17:14:05.648Z,2.00
2022-09-15T17:16:32.847Z,2.73
2022-09-15T17:19:00.090Z,1.90
2022-09-15T17:21:27.452Z,4.23
2022-09-15T17:23:54.699Z,2.20
2022-09-15T17:26:31.040Z,3.03
2022-09-15T17:28:59.004Z,2.47
2022-09-15T17:31:26.513Z,2.97
2022-09-15T17:33:53.875Z,3.33
2022-09-15T17:36:20.988Z,2.33
2022-09-15T17:38:51.322Z,5.10
2022-09-15T17:41:21.662Z,2.67
2022-09-15T17:43:49.705Z,5.67
2022-09-15T17:46:17.068Z,2.97
2022-09-15T17:48:44.391Z,2.97
2022-09-15T17:51:17.643Z,3.67
2022-09-15T17:53:48.019Z,2.97
2022-09-15T17:56:15.295Z,2.80
2022-09-15T17:58:43.266Z,3.80
2022-09-15T18:01:14.597Z,3.03
2022-09-15T18:03:44.568Z,2.33
2022-09-15T18:06:12.323Z,1.90
2022-09-15T18:08:40.269Z,2.40
2022-09-15T18:11:08.074Z,4.37
2022-09-15T18:13:35.285Z,4.57
2022-09-15T18:16:11.016Z,2.60
2022-09-15T18:18:40.127Z,3.17
2022-09-15T18:21:16.867Z,3.23
2022-09-15T18:23:45.284Z,1.97
2022-09-15T18:26:12.530Z,2.40
2022-09-15T18:28:39.654Z,2.50
2022-09-15T18:31:07.071Z,2.07
2022-09-15T18:33:34.154Z,4.83
2022-09-15T18:36:01.670Z,4.37
2022-09-15T18:38:28.969Z,3.47
2022-09-15T18:40:57.938Z,3.50
2022-09-15T18:43:27.996Z,4.80
2022-09-15T18:46:00.479Z,3.37
2022-09-15T18:48:28.588Z,2.97
2022-09-15T18:50:55.875Z,3.67
2022-09-15T18:53:23.194Z,2.10
2022-09-15T18:55:50.534Z,3.37
2022-09-15T18:58:19.405Z,3.73
2022-09-15T19:00:49.201Z,3.30
2022-09-15T19:03:16.460Z,3.23
2022-09-15T19:05:43.818Z,4.40
2022-09-15T19:08:11.747Z,3.83
2022-09-15T19:10:41.634Z,3.03
2022-09-15T19:13:11.513Z,3.73
2022-09-15T19:15:43.998Z,3.87
2022-09-15T19:18:11.460Z,2.80
2022-09-15T19:20:38.661Z,2.80
2022-09-15T19:23:05.765Z,3.07
2022-09-15T19:25:33.381Z,2.77
2022-09-15T19:28:00.562Z,3.33
2022-09-15T19:30:27.898Z,1.87
2022-09-15T19:32:55.451Z,4.07
2022-09-15T19:35:23.232Z,3.60
2022-09-15T19:37:50.352Z,3.10
2022-09-15T19:40:19.184Z,3.53
2022-09-15T19:42:46.389Z,2.97
2022-09-15T19:45:14.105Z,2.33
2022-09-15T19:47:41.995Z,5.17
2022-09-15T19:50:12.268Z,5.13
2022-09-15T19:52:39.864Z,1.57
2022-09-15T19:55:09.838Z,3.17
2022-09-15T19:57:41.888Z,3.97
2022-09-15T20:00:12.680Z,2.20
2022-09-15T20:02:40.079Z,3.20
2022-09-15T20:05:08.966Z,4.73
2022-09-15T20:07:36.641Z,3.93
2022-09-15T20:10:05.179Z,2.73
2022-09-15T20:12:32.615Z,4.77
2022-09-15T20:14:59.827Z,3.70
2022-09-15T20:17:27.134Z,3.67
2022-09-15T20:19:56.341Z,2.47
2022-09-15T20:22:24.124Z,2.83
2022-09-15T20:24:51.826Z,4.13
2022-09-15T20:27:19.001Z,2.77
2022-09-15T20:29:46.187Z,4.20
2022-09-15T20:32:13.396Z,2.90
2022-09-15T20:34:40.654Z,1.90
2022-09-15T20:37:07.782Z,2.00
2022-09-15T20:39:35.897Z,2.53
2022-09-15T20:42:02.996Z,4.27
2022-09-15T20:44:30.137Z,4.47
2022-09-15T20:46:57.217Z,4.57
2022-09-15T20:49:24.657Z,2.77
2022-09-15T20:51:52.042Z,2.90
2022-09-15T20:54:19.440Z,2.80
2022-09-15T20:56:46.648Z,3.90
2022-09-15T20:59:14.447Z,3.10
2022-09-15T21:01:42.038Z,3.43
2022-09-15T21:04:10.705Z,3.90
2022-09-15T21:06:38.768Z,3.93
2022-09-15T21:09:06.778Z,3.97
2022-09-15T21:11:34.966Z,3.33
2022-09-15T21:14:02.637Z,4.50
2022-09-15T21:16:30.366Z,3.57
2022-09-15T21:18:58.779Z,3.37
2022-09-15T21:21:32.810Z,4.57
2022-09-15T21:24:04.868Z,3.43
2022-09-15T21:26:56.780Z,2.93
2022-09-15T21:29:44.924Z,4.50
2022-09-15T21:32:13.918Z,5.00
2022-09-15T21:34:41.104Z,2.37
2022-09-15T21:37:08.405Z,4.97
2022-09-15T21:39:35.533Z,4.73
2022-09-15T21:42:03.392Z,4.00
2022-09-15T21:44:30.538Z,3.57
2022-09-15T21:46:59.072Z,3.40
2022-09-15T21:49:26.235Z,2.67
2022-09-15T21:51:53.454Z,3.63
2022-09-15T21:54:20.780Z,2.53
2022-09-15T21:56:48.032Z,4.47
2022-09-15T21:59:16.011Z,3.67
2022-09-15T22:01:45.806Z,3.70
2022-09-15T22:04:14.734Z,2.90
2022-09-15T22:06:42.370Z,2.47
2022-09-15T22:09:21.325Z,2.70
2022-09-15T22:11:49.357Z,4.03
2022-09-15T22:14:16.794Z,4.60
2022-09-15T22:16:46.870Z,5.37
2022-09-15T22:19:14.302Z,3.53
2022-09-15T22:21:42.595Z,4.70
2022-09-15T22:24:13.155Z,3.33
2022-09-15T22:26:42.612Z,3.50
2022-09-15T22:29:10.226Z,2.87
2022-09-15T22:31:38.400Z,3.13
2022-09-15T22:34:05.850Z,2.20
2022-09-15T22:36:33.866Z,2.40
2022-09-15T22:39:06.001Z,3.37
2022-09-15T22:41:38.969Z,4.13
2022-09-15T22:44:07.772Z,5.03
2022-09-15T22:46:35.471Z,3.73
2022-09-15T22:49:03.077Z,3.97
2022-09-15T22:51:30.398Z,3.03
2022-09-15T22:53:57.810Z,2.13
2022-09-15T22:56:26.712Z,3.00
2022-09-15T22:59:03.895Z,2.73
2022-09-15T23:01:31.232Z,3.80
2022-09-15T23:04:02.040Z,2.43
2022-09-15T23:06:33.760Z,2.20
2022-09-15T23:09:07.051Z,3.57
2022-09-15T23:11:35.327Z,3.30
2022-09-15T23:14:03.194Z,3.47
2022-09-15T23:16:31.602Z,3.83
2022-09-15T23:18:59.647Z,4.10
2022-09-15T23:21:28.247Z,2.50
2022-09-15T23:23:56.152Z,4.83
2022-09-15T23:26:24.722Z,4.63
2022-09-15T23:28:52.791Z,5.17
2022-09-15T23:31:21.279Z,2.33
2022-09-15T23:33:49.063Z,3.13
2022-09-15T23:36:22.025Z,3.53
2022-09-15T23:38:50.061Z,2.73
2022-09-15T23:41:18.548Z,3.37
2022-09-15T23:43:47.187Z,2.13
2022-09-15T23:46:15.198Z,4.60
2022-09-15T23:48:43.127Z,1.97
2022-09-15T23:51:10.714Z,2.50
2022-09-15T23:53:37.846Z,3.67
2022-09-15T23:56:05.368Z,2.73
2022-09-15T23:58:32.792Z,2.10
